Abilene, Kansas
Current Conditions -  °F | °C
As of 10:53 PM on Saturday 25 Oct 2014 (Local Time) from KSLN Reporting Station
Clear Clear  
Wind Chill: 64°   Ceiling: Unl
Heat Index: 64°   Visibility: 10mi
Dew Point: 57°   Wind: 6mph
Humidity: 78%   Direction: 160°SSE
Pressure: 29.93"   Gusts: NA
Location:  38.92°N, 97.21°W
Report Text: KSLN 260353Z 16005KT 10SM CLR 18/14 A2993 RMK AO2 SLP128 T01780139
Loading
Personal Weather Stations






























Interactive Weather Map
Tropical Storm Tracking
New forecast layout! Learn more

10-Day Weather Forecast

Advertisements
Track Severe Weather on mobile